Terminal Aerodrome Forecast
Issued by NWS Mt. Holly, NJ

Home | Current Version | Previous Version | Text Only | Print | Product List | Glossary On
Versions: 1 2 3 4 5 6 7 8 9 10 11 12 13 14 15 16 17 18
202
FTUS41 KPHI 281120
TAFABE
TAF
KABE 281120Z 2812/0112 00000KT P6SM BKN080 OVC100
     FM281500 VRB02KT P6SM FEW150 SCT250
     FM282100 15005KT P6SM BKN100
     FM282300 16005KT 2SM SHRA BR BKN020 OVC050
     FM010300 18005KT 2SM SHRA BR BKN008 OVC010
     FM010700 20005KT 2SM BR OVC003=

USA.gov is the U.S. government's official web portal to all federal, state and local government web resources and services.